createdAt,value
2023-05-13T00:00:13.691Z,26.25
2023-05-13T00:03:02.648Z,26.18
2023-05-13T00:05:51.546Z,26.18
2023-05-13T00:08:45.460Z,26.16
2023-05-13T00:11:34.318Z,26.16
2023-05-13T00:14:23.582Z,26.18
2023-05-13T00:17:12.861Z,26.14
2023-05-13T00:20:01.593Z,26.19
2023-05-13T00:22:51.171Z,26.13
2023-05-13T00:25:42.156Z,26.07
2023-05-13T00:28:32.072Z,26.08
2023-05-13T00:31:21.323Z,26.08
2023-05-13T00:34:10.272Z,26.06
2023-05-13T00:36:59.631Z,26.03
2023-05-13T00:39:50.478Z,26.02
2023-05-13T00:42:41.911Z,26.06
2023-05-13T00:45:31.356Z,26.06
2023-05-13T00:48:20.678Z,26.08
2023-05-13T00:51:09.451Z,26.01
2023-05-13T00:54:00.721Z,26.01
2023-05-13T00:56:49.464Z,26.01
2023-05-13T00:59:40.184Z,25.96
2023-05-13T01:02:34.819Z,26.03
2023-05-13T01:05:32.340Z,25.97
2023-05-13T01:08:30.614Z,25.98
2023-05-13T01:11:22.907Z,25.96
2023-05-13T01:14:14.580Z,25.97
2023-05-13T01:17:16.724Z,25.93
2023-05-13T01:20:06.800Z,25.92
2023-05-13T01:22:57.033Z,25.95
2023-05-13T01:25:46.338Z,26.02
2023-05-13T01:28:35.449Z,25.92
2023-05-13T01:31:25.781Z,25.92
2023-05-13T01:34:16.900Z,25.91
2023-05-13T01:37:06.813Z,25.92
2023-05-13T01:39:57.537Z,25.95
2023-05-13T01:42:46.236Z,25.93
2023-05-13T01:45:35.158Z,25.94
2023-05-13T01:48:24.124Z,25.94
2023-05-13T01:51:12.839Z,25.91
2023-05-13T01:54:02.051Z,25.94
2023-05-13T01:56:52.851Z,25.92
2023-05-13T01:59:41.624Z,25.95
2023-05-13T02:02:30.404Z,25.92
2023-05-13T02:05:19.319Z,25.91
2023-05-13T02:08:09.072Z,25.91
2023-05-13T02:10:58.104Z,25.91
2023-05-13T02:13:48.300Z,25.85
2023-05-13T02:16:37.403Z,25.84
2023-05-13T02:19:26.037Z,25.86
2023-05-13T02:22:15.743Z,25.89
2023-05-13T02:25:05.605Z,25.88
2023-05-13T02:27:54.303Z,25.86
2023-05-13T02:30:44.658Z,25.86
2023-05-13T02:33:33.190Z,25.85
2023-05-13T02:36:21.894Z,25.87
2023-05-13T02:39:11.050Z,25.88
2023-05-13T02:41:59.825Z,25.89
2023-05-13T02:44:48.590Z,25.84
2023-05-13T02:47:39.296Z,25.87
2023-05-13T02:50:28.526Z,25.89
2023-05-13T02:53:17.238Z,25.91
2023-05-13T02:56:06.212Z,25.84
2023-05-13T02:58:54.829Z,25.81
2023-05-13T03:01:43.650Z,25.79
2023-05-13T03:04:33.839Z,25.81
2023-05-13T03:07:22.463Z,25.79
2023-05-13T03:10:11.826Z,25.80
2023-05-13T03:13:00.451Z,25.76
2023-05-13T03:15:49.442Z,25.81
2023-05-13T03:18:38.118Z,25.79
2023-05-13T03:21:28.215Z,25.79
2023-05-13T03:24:17.025Z,25.79
2023-05-13T03:27:06.458Z,25.79
2023-05-13T03:29:55.052Z,25.77
2023-05-13T03:32:44.126Z,25.79
2023-05-13T03:35:32.786Z,25.82
2023-05-13T03:38:22.777Z,25.83
2023-05-13T03:41:11.654Z,25.77
2023-05-13T03:44:00.531Z,25.75
2023-05-13T03:46:49.208Z,25.77
2023-05-13T03:49:39.026Z,25.77
2023-05-13T03:52:27.782Z,25.80
2023-05-13T03:55:17.819Z,25.85
2023-05-13T03:58:13.596Z,25.83
2023-05-13T04:01:02.255Z,25.79
2023-05-13T04:03:50.895Z,25.83
2023-05-13T04:06:39.582Z,25.83
2023-05-13T04:09:28.185Z,25.77
2023-05-13T04:12:18.909Z,25.79
2023-05-13T04:15:08.789Z,25.77
2023-05-13T04:17:57.412Z,25.79
2023-05-13T04:20:46.345Z,25.79
2023-05-13T04:23:35.630Z,25.81
2023-05-13T04:26:24.486Z,25.75
2023-05-13T04:29:15.002Z,25.76
2023-05-13T04:32:06.262Z,25.75
2023-05-13T04:34:55.476Z,25.74
2023-05-13T04:37:52.841Z,25.77
2023-05-13T04:40:43.454Z,25.75
2023-05-13T04:43:32.171Z,25.79
2023-05-13T04:46:22.226Z,25.77
2023-05-13T04:49:11.721Z,25.75
2023-05-13T04:52:03.271Z,25.79
2023-05-13T04:54:51.892Z,25.75
2023-05-13T04:57:40.493Z,25.74
2023-05-13T05:00:29.454Z,25.74
2023-05-13T05:03:19.464Z,25.74
2023-05-13T05:06:08.594Z,25.70
2023-05-13T05:08:57.265Z,25.72
2023-05-13T05:11:48.541Z,25.73
2023-05-13T05:14:38.149Z,25.74
2023-05-13T05:17:27.862Z,25.69
2023-05-13T05:20:18.006Z,25.73
2023-05-13T05:23:07.259Z,25.72
2023-05-13T05:26:07.892Z,25.76
2023-05-13T05:29:00.175Z,25.73
2023-05-13T05:31:48.849Z,25.72
2023-05-13T05:34:37.832Z,25.80
2023-05-13T05:37:27.889Z,25.81
2023-05-13T05:40:16.446Z,25.84
2023-05-13T05:43:05.187Z,25.82
2023-05-13T05:45:53.882Z,25.92
2023-05-13T05:48:42.659Z,25.91
2023-05-13T05:51:31.272Z,25.84
2023-05-13T05:54:21.466Z,25.83
2023-05-13T05:57:10.031Z,25.82
2023-05-13T05:59:58.713Z,25.77
2023-05-13T06:02:48.835Z,25.76
2023-05-13T06:05:37.996Z,25.80
2023-05-13T06:08:30.154Z,25.76
2023-05-13T06:11:20.823Z,25.77
2023-05-13T06:14:11.729Z,25.76
2023-05-13T06:17:00.391Z,25.72
2023-05-13T06:19:49.014Z,25.75
2023-05-13T06:22:37.622Z,25.72
2023-05-13T06:25:26.433Z,25.74
2023-05-13T06:28:16.620Z,25.78
2023-05-13T06:31:05.616Z,25.77
2023-05-13T06:33:54.865Z,25.77
2023-05-13T06:36:44.183Z,25.75
2023-05-13T06:39:34.152Z,25.77
2023-05-13T06:42:22.984Z,25.75
2023-05-13T06:45:13.478Z,25.73
2023-05-13T06:48:02.115Z,25.79
2023-05-13T06:50:50.779Z,25.75
2023-05-13T06:53:39.414Z,25.77
2023-05-13T06:56:28.062Z,25.83
2023-05-13T06:59:16.605Z,25.84
2023-05-13T07:02:09.723Z,25.83
2023-05-13T07:04:59.333Z,25.83
2023-05-13T07:07:48.011Z,25.80
2023-05-13T07:10:37.218Z,25.82
2023-05-13T07:13:27.364Z,25.95
2023-05-13T07:16:16.041Z,25.92
2023-05-13T07:19:06.385Z,25.95
2023-05-13T07:21:55.026Z,25.93
2023-05-13T07:24:43.710Z,25.95
2023-05-13T07:27:32.375Z,25.94
2023-05-13T07:30:21.314Z,26.01
2023-05-13T07:33:10.129Z,26.05
2023-05-13T07:36:00.461Z,26.05
2023-05-13T07:38:49.221Z,26.10
2023-05-13T07:41:38.176Z,26.18
2023-05-13T07:44:27.063Z,26.07
2023-05-13T07:47:15.821Z,26.03
2023-05-13T07:50:04.802Z,26.07
2023-05-13T07:52:55.154Z,26.07
2023-05-13T07:55:44.851Z,26.05
2023-05-13T07:58:36.626Z,26.03
2023-05-13T08:01:25.713Z,26.05
2023-05-13T08:04:15.905Z,25.98
2023-05-13T08:07:05.047Z,26.08
2023-05-13T08:09:55.381Z,26.04
2023-05-13T08:12:50.879Z,26.06
2023-05-13T08:15:39.726Z,26.12
2023-05-13T08:18:28.679Z,26.12
2023-05-13T08:21:17.336Z,26.11
2023-05-13T08:24:07.002Z,26.17
2023-05-13T08:26:57.095Z,26.11
2023-05-13T08:29:45.975Z,26.12
2023-05-13T08:32:34.666Z,26.17
2023-05-13T08:35:23.428Z,26.19
2023-05-13T08:38:12.595Z,26.18
2023-05-13T08:41:07.808Z,26.18
2023-05-13T08:44:01.164Z,26.21
2023-05-13T08:47:03.765Z,26.26
2023-05-13T08:49:53.505Z,26.18
2023-05-13T08:52:42.535Z,26.28
2023-05-13T08:55:31.410Z,26.48
2023-05-13T08:58:20.139Z,26.63
2023-05-13T09:01:10.288Z,26.96
2023-05-13T09:04:01.381Z,26.85
2023-05-13T09:06:50.168Z,27.07
2023-05-13T09:09:39.638Z,27.23
2023-05-13T09:12:47.404Z,27.05
2023-05-13T09:15:36.091Z,26.93
2023-05-13T09:18:31.958Z,27.20
2023-05-13T09:21:24.790Z,27.14
2023-05-13T09:24:18.417Z,27.17
2023-05-13T09:27:07.650Z,27.23
2023-05-13T09:30:01.780Z,27.14
2023-05-13T09:33:07.279Z,27.24
2023-05-13T09:35:57.850Z,27.29
2023-05-13T09:38:48.098Z,27.28
2023-05-13T09:41:36.851Z,27.32
2023-05-13T09:44:26.434Z,27.30
2023-05-13T09:47:19.769Z,27.25
2023-05-13T09:50:10.346Z,27.14
2023-05-13T09:53:00.345Z,27.04
2023-05-13T09:55:49.621Z,26.88
2023-05-13T09:58:38.372Z,26.81
2023-05-13T10:01:31.213Z,26.76
2023-05-13T10:04:20.099Z,26.76
2023-05-13T10:07:11.071Z,26.64
2023-05-13T10:10:04.281Z,26.58
2023-05-13T10:12:54.255Z,26.54
2023-05-13T10:15:50.461Z,26.57
2023-05-13T10:18:39.419Z,26.57
2023-05-13T10:21:38.271Z,26.67
2023-05-13T10:24:28.965Z,26.52
2023-05-13T10:27:20.766Z,26.56
2023-05-13T10:30:10.728Z,26.65
2023-05-13T10:32:59.777Z,26.68
2023-05-13T10:36:01.605Z,26.78
2023-05-13T10:39:08.286Z,26.66
2023-05-13T10:42:38.645Z,26.55
2023-05-13T10:45:28.266Z,26.53
2023-05-13T10:48:19.567Z,26.52
2023-05-13T10:51:08.907Z,26.53
2023-05-13T10:53:59.276Z,26.57
2023-05-13T10:56:48.069Z,26.52
2023-05-13T10:59:38.849Z,26.53
2023-05-13T11:02:33.680Z,26.47
2023-05-13T11:05:23.157Z,26.49
2023-05-13T11:08:11.848Z,26.46
2023-05-13T11:11:00.438Z,26.42
2023-05-13T11:13:51.619Z,26.45
2023-05-13T11:16:47.683Z,26.36
2023-05-13T11:19:37.922Z,26.34
2023-05-13T11:22:27.594Z,26.33
2023-05-13T11:25:17.249Z,26.32
2023-05-13T11:28:06.261Z,26.29
2023-05-13T11:30:56.123Z,26.33
2023-05-13T11:34:13.781Z,26.31
2023-05-13T11:37:12.324Z,26.25
2023-05-13T11:40:02.434Z,26.27
2023-05-13T11:42:51.267Z,26.30
2023-05-13T11:45:42.621Z,26.30
2023-05-13T11:48:33.625Z,26.31
2023-05-13T11:51:25.277Z,26.31
2023-05-13T11:54:13.940Z,26.30
2023-05-13T11:57:02.630Z,26.29
2023-05-13T11:59:56.472Z,26.33
2023-05-13T12:02:46.218Z,26.32
2023-05-13T12:05:37.026Z,26.30
2023-05-13T12:08:27.202Z,26.29
2023-05-13T12:11:15.817Z,26.30
2023-05-13T12:14:04.620Z,26.32
2023-05-13T12:16:53.349Z,26.31
2023-05-13T12:19:42.231Z,26.27
2023-05-13T12:22:31.293Z,26.34
2023-05-13T12:25:45.156Z,26.34
2023-05-13T12:28:34.305Z,26.36
2023-05-13T12:31:24.177Z,26.48
2023-05-13T12:34:13.337Z,26.53
2023-05-13T12:37:13.797Z,26.47
2023-05-13T12:40:12.488Z,26.45
2023-05-13T12:43:04.806Z,26.39
2023-05-13T12:45:58.013Z,26.32
2023-05-13T12:48:47.515Z,26.26
2023-05-13T12:51:40.784Z,26.22
2023-05-13T12:54:29.548Z,26.22
2023-05-13T12:57:19.031Z,26.15
2023-05-13T13:00:12.201Z,26.09
2023-05-13T13:03:01.574Z,26.11
2023-05-13T13:05:52.771Z,26.10
2023-05-13T13:08:42.718Z,26.13
2023-05-13T13:11:31.649Z,26.25
2023-05-13T13:14:20.220Z,26.32
2023-05-13T13:17:10.723Z,26.24
2023-05-13T13:19:59.509Z,26.27
2023-05-13T13:22:50.386Z,26.24
2023-05-13T13:25:40.103Z,26.46
2023-05-13T13:28:33.536Z,26.45
2023-05-13T13:31:22.349Z,26.59
2023-05-13T13:34:15.177Z,26.56
2023-05-13T13:37:03.976Z,26.62
2023-05-13T13:39:53.385Z,26.66
2023-05-13T13:42:44.546Z,26.78
2023-05-13T13:45:33.659Z,26.74
2023-05-13T13:48:23.025Z,26.70
2023-05-13T13:51:14.060Z,26.63
2023-05-13T13:54:07.186Z,26.60
2023-05-13T13:56:56.144Z,26.70
2023-05-13T13:59:45.592Z,26.75
2023-05-13T14:02:34.344Z,26.58
2023-05-13T14:05:24.816Z,26.56
2023-05-13T14:08:14.839Z,26.67
2023-05-13T14:11:06.406Z,26.48
2023-05-13T14:13:56.338Z,26.48
2023-05-13T14:16:53.250Z,26.39
2023-05-13T14:19:42.379Z,26.52
2023-05-13T14:22:30.962Z,26.46
2023-05-13T14:25:21.065Z,26.31
2023-05-13T14:28:10.186Z,26.34
2023-05-13T14:30:58.998Z,26.34
2023-05-13T14:33:47.736Z,26.38
2023-05-13T14:36:37.120Z,26.44
2023-05-13T14:39:25.783Z,26.42
2023-05-13T14:42:15.802Z,26.42
2023-05-13T14:45:04.476Z,26.45
2023-05-13T14:47:54.002Z,26.43
2023-05-13T14:50:42.752Z,26.53
2023-05-13T14:53:31.658Z,26.47
2023-05-13T14:56:20.551Z,26.46
2023-05-13T14:59:10.531Z,26.53
2023-05-13T15:01:59.117Z,26.43
2023-05-13T15:04:49.679Z,26.48
2023-05-13T15:07:38.446Z,26.44
2023-05-13T15:10:27.110Z,26.52
2023-05-13T15:13:15.755Z,26.47
2023-05-13T15:16:07.127Z,26.58
2023-05-13T15:18:55.810Z,26.50
2023-05-13T15:21:44.484Z,26.53
2023-05-13T15:24:33.080Z,26.52
2023-05-13T15:27:21.733Z,26.52
2023-05-13T15:30:11.320Z,26.49
2023-05-13T15:33:01.338Z,26.34
2023-05-13T15:35:53.272Z,26.34
2023-05-13T15:38:41.969Z,26.14
2023-05-13T15:41:30.812Z,26.10
2023-05-13T15:44:19.478Z,26.16
2023-05-13T15:47:08.523Z,26.31
2023-05-13T15:49:59.212Z,26.26
2023-05-13T15:52:48.034Z,26.11
2023-05-13T15:55:37.402Z,25.97
2023-05-13T15:58:26.070Z,26.05
2023-05-13T16:01:14.955Z,25.93
2023-05-13T16:04:03.693Z,26.06
2023-05-13T16:06:54.368Z,26.09
2023-05-13T16:09:43.003Z,26.09
2023-05-13T16:12:33.281Z,26.09
2023-05-13T16:15:21.918Z,26.08
2023-05-13T16:18:10.646Z,26.06
2023-05-13T16:20:59.316Z,26.00
2023-05-13T16:23:50.961Z,26.05
2023-05-13T16:26:39.733Z,26.13
2023-05-13T16:29:29.639Z,25.97
2023-05-13T16:32:18.227Z,25.84
2023-05-13T16:35:08.042Z,26.06
2023-05-13T16:37:56.688Z,26.27
2023-05-13T16:40:48.625Z,26.18
2023-05-13T16:43:37.351Z,26.10
2023-05-13T16:46:26.078Z,25.88
2023-05-13T16:49:15.744Z,25.80
2023-05-13T16:52:04.563Z,25.93
2023-05-13T16:54:53.483Z,25.94
2023-05-13T16:57:43.924Z,25.96
2023-05-13T17:00:32.568Z,25.81
2023-05-13T17:03:21.272Z,25.77
2023-05-13T17:06:10.424Z,25.73
2023-05-13T17:08:59.026Z,25.73
2023-05-13T17:11:47.660Z,25.74
2023-05-13T17:14:37.689Z,25.76
2023-05-13T17:17:26.319Z,25.77
2023-05-13T17:20:20.779Z,25.74
2023-05-13T17:23:09.513Z,25.77
2023-05-13T17:25:58.366Z,25.79
2023-05-13T17:28:47.042Z,25.80
2023-05-13T17:31:37.155Z,25.81
2023-05-13T17:34:25.931Z,25.81
2023-05-13T17:37:14.518Z,25.81
2023-05-13T17:40:03.157Z,25.81
2023-05-13T17:42:52.849Z,25.88
2023-05-13T17:45:45.076Z,25.95
2023-05-13T17:48:36.037Z,25.92
2023-05-13T17:51:24.849Z,25.95
2023-05-13T17:54:14.088Z,25.91
2023-05-13T17:57:02.800Z,25.92
2023-05-13T17:59:51.838Z,25.92
2023-05-13T18:02:41.137Z,25.88
2023-05-13T18:05:31.406Z,25.91
2023-05-13T18:08:20.054Z,25.96
2023-05-13T18:11:08.704Z,25.91
2023-05-13T18:13:57.537Z,25.94
2023-05-13T18:16:46.207Z,25.91
2023-05-13T18:19:35.632Z,25.91
2023-05-13T18:22:25.757Z,26.06
2023-05-13T18:25:14.406Z,26.29
2023-05-13T18:28:03.059Z,26.36
2023-05-13T18:30:51.866Z,26.49
2023-05-13T18:33:40.482Z,26.66
2023-05-13T18:36:29.307Z,26.66
2023-05-13T18:39:19.587Z,26.71
2023-05-13T18:42:08.689Z,26.78
2023-05-13T18:44:57.544Z,26.86
2023-05-13T18:47:46.542Z,26.98
2023-05-13T18:50:41.580Z,27.00
2023-05-13T18:53:30.126Z,27.11
2023-05-13T18:56:20.210Z,27.03
2023-05-13T18:59:08.941Z,27.04
2023-05-13T19:01:57.747Z,26.99
2023-05-13T19:04:46.760Z,27.09
2023-05-13T19:07:35.539Z,27.24
2023-05-13T19:10:24.468Z,27.28
2023-05-13T19:13:14.726Z,27.35
2023-05-13T19:16:03.409Z,27.36
2023-05-13T19:18:52.255Z,27.37
2023-05-13T19:21:44.348Z,27.41
2023-05-13T19:24:35.971Z,27.42
2023-05-13T19:27:24.603Z,27.44
2023-05-13T19:30:15.205Z,27.46
2023-05-13T19:33:04.592Z,27.46
2023-05-13T19:35:53.494Z,27.49
2023-05-13T19:38:42.765Z,27.50
2023-05-13T19:41:31.448Z,27.58
2023-05-13T19:44:20.217Z,27.57
2023-05-13T19:47:11.581Z,27.66
2023-05-13T19:50:00.276Z,27.69
2023-05-13T19:52:50.400Z,27.70
2023-05-13T19:55:38.992Z,27.75
2023-05-13T19:58:28.407Z,27.75
2023-05-13T20:01:17.536Z,27.75
2023-05-13T20:04:08.210Z,27.76
2023-05-13T20:06:56.926Z,27.74
2023-05-13T20:09:47.447Z,27.74
2023-05-13T20:12:36.056Z,27.67
2023-05-13T20:15:24.683Z,27.60
2023-05-13T20:18:13.541Z,27.63
2023-05-13T20:21:03.828Z,27.65
2023-05-13T20:23:52.485Z,27.65
2023-05-13T20:26:41.958Z,27.69
2023-05-13T20:29:36.197Z,27.67
2023-05-13T20:32:25.325Z,27.66
2023-05-13T20:35:14.100Z,27.69
2023-05-13T20:38:04.321Z,27.67
2023-05-13T20:40:52.996Z,27.63
2023-05-13T20:43:41.695Z,27.53
2023-05-13T20:46:30.338Z,27.61
2023-05-13T20:49:19.827Z,27.59
2023-05-13T20:52:09.454Z,27.53
2023-05-13T20:54:59.589Z,27.46
2023-05-13T20:57:48.678Z,27.40
2023-05-13T21:00:37.260Z,27.26
2023-05-13T21:03:26.128Z,27.30
2023-05-13T21:06:15.562Z,27.28
2023-05-13T21:09:04.225Z,27.21
2023-05-13T21:11:54.218Z,27.18
2023-05-13T21:14:43.908Z,27.24
2023-05-13T21:17:33.020Z,27.19
2023-05-13T21:20:22.461Z,27.20
2023-05-13T21:23:11.221Z,27.13
2023-05-13T21:25:59.808Z,27.20
2023-05-13T21:28:49.792Z,27.21
2023-05-13T21:31:38.453Z,27.20
2023-05-13T21:34:27.221Z,27.23
2023-05-13T21:37:16.877Z,27.19
2023-05-13T21:40:06.939Z,27.24
2023-05-13T21:42:55.671Z,27.24
2023-05-13T21:45:49.249Z,27.25
2023-05-13T21:48:37.881Z,27.20
2023-05-13T21:51:26.634Z,27.13
2023-05-13T21:54:15.319Z,27.15
2023-05-13T21:57:04.151Z,27.19
2023-05-13T21:59:53.259Z,27.10
2023-05-13T22:02:43.923Z,26.96
2023-05-13T22:05:32.686Z,26.91
2023-05-13T22:08:22.071Z,26.90
2023-05-13T22:11:11.413Z,26.83
2023-05-13T22:14:01.292Z,26.73
2023-05-13T22:17:00.874Z,26.68
2023-05-13T22:19:57.366Z,26.70
2023-05-13T22:22:45.990Z,26.68
2023-05-13T22:25:34.717Z,26.67
2023-05-13T22:28:23.517Z,26.69
2023-05-13T22:31:12.375Z,26.58
2023-05-13T22:34:01.069Z,26.60
2023-05-13T22:36:51.088Z,26.60
2023-05-13T22:39:39.702Z,26.56
2023-05-13T22:42:29.952Z,26.55
2023-05-13T22:45:19.004Z,26.63
2023-05-13T22:48:08.441Z,26.60
2023-05-13T22:50:58.400Z,26.64
2023-05-13T22:53:52.998Z,26.56
2023-05-13T22:56:41.622Z,26.55
2023-05-13T22:59:30.281Z,26.49
2023-05-13T23:02:18.844Z,26.54
2023-05-13T23:05:08.429Z,26.56
2023-05-13T23:07:57.047Z,26.54
2023-05-13T23:10:47.134Z,26.50
2023-05-13T23:13:35.915Z,26.51
2023-05-13T23:16:24.539Z,26.50
2023-05-13T23:19:13.836Z,26.52
2023-05-13T23:22:02.522Z,26.57
2023-05-13T23:24:51.694Z,26.52
2023-05-13T23:27:41.801Z,26.48
2023-05-13T23:30:30.430Z,26.45
2023-05-13T23:33:19.018Z,26.52
2023-05-13T23:36:08.313Z,26.52
2023-05-13T23:38:56.923Z,26.53
2023-05-13T23:41:45.517Z,26.44
2023-05-13T23:44:36.807Z,26.48
2023-05-13T23:47:25.847Z,26.50
2023-05-13T23:50:15.987Z,26.40
2023-05-13T23:53:04.662Z,26.40
2023-05-13T23:55:54.276Z,26.36
2023-05-13T23:58:45.241Z,26.39
